sensor_id;sensor_type;location;lat;lon;timestamp;temperature;humidity
2749;DHT22;1382;52.142;11.618;2023-02-01T00:00:19;8.50;56.40
2749;DHT22;1382;52.142;11.618;2023-02-01T00:02:48;8.60;56.20
2749;DHT22;1382;52.142;11.618;2023-02-01T00:05:14;8.60;56.10
2749;DHT22;1382;52.142;11.618;2023-02-01T00:07:41;8.60;56.00
2749;DHT22;1382;52.142;11.618;2023-02-01T00:10:09;8.60;55.80
2749;DHT22;1382;52.142;11.618;2023-02-01T00:12:36;8.50;55.80
2749;DHT22;1382;52.142;11.618;2023-02-01T00:15:03;8.50;56.10
2749;DHT22;1382;52.142;11.618;2023-02-01T00:17:30;8.50;56.20
2749;DHT22;1382;52.142;11.618;2023-02-01T00:19:58;8.50;56.10
2749;DHT22;1382;52.142;11.618;2023-02-01T00:22:25;8.50;56.40
2749;DHT22;1382;52.142;11.618;2023-02-01T00:24:52;8.50;56.20
2749;DHT22;1382;52.142;11.618;2023-02-01T00:27:18;8.50;56.30
2749;DHT22;1382;52.142;11.618;2023-02-01T00:29:45;8.50;56.40
2749;DHT22;1382;52.142;11.618;2023-02-01T00:32:12;8.50;56.40
2749;DHT22;1382;52.142;11.618;2023-02-01T00:34:39;8.60;56.50
2749;DHT22;1382;52.142;11.618;2023-02-01T00:37:07;8.50;56.10
2749;DHT22;1382;52.142;11.618;2023-02-01T00:39:34;8.50;56.10
2749;DHT22;1382;52.142;11.618;2023-02-01T00:42:01;8.50;56.10
2749;DHT22;1382;52.142;11.618;2023-02-01T00:44:28;8.50;56.50
2749;DHT22;1382;52.142;11.618;2023-02-01T00:46:55;8.50;56.30
2749;DHT22;1382;52.142;11.618;2023-02-01T00:49:22;8.50;56.10
2749;DHT22;1382;52.142;11.618;2023-02-01T00:51:48;8.70;56.10
2749;DHT22;1382;52.142;11.618;2023-02-01T00:54:16;8.50;56.30
2749;DHT22;1382;52.142;11.618;2023-02-01T00:56:43;8.50;55.80
2749;DHT22;1382;52.142;11.618;2023-02-01T00:59:11;8.50;56.10
2749;DHT22;1382;52.142;11.618;2023-02-01T01:01:37;8.50;56.30
2749;DHT22;1382;52.142;11.618;2023-02-01T01:04:04;8.50;56.10
2749;DHT22;1382;52.142;11.618;2023-02-01T01:06:33;8.50;55.90
2749;DHT22;1382;52.142;11.618;2023-02-01T01:09:02;8.60;56.10
2749;DHT22;1382;52.142;11.618;2023-02-01T01:11:32;8.50;55.60
2749;DHT22;1382;52.142;11.618;2023-02-01T01:14:00;8.60;55.90
2749;DHT22;1382;52.142;11.618;2023-02-01T01:16:29;8.40;56.20
2749;DHT22;1382;52.142;11.618;2023-02-01T01:18:56;8.60;56.00
2749;DHT22;1382;52.142;11.618;2023-02-01T01:21:23;8.50;55.70
2749;DHT22;1382;52.142;11.618;2023-02-01T01:23:50;8.40;56.20
2749;DHT22;1382;52.142;11.618;2023-02-01T01:26:20;8.50;56.40
2749;DHT22;1382;52.142;11.618;2023-02-01T01:28:48;8.50;56.20
2749;DHT22;1382;52.142;11.618;2023-02-01T01:31:17;8.70;56.30
2749;DHT22;1382;52.142;11.618;2023-02-01T01:33:44;8.50;56.10
2749;DHT22;1382;52.142;11.618;2023-02-01T01:36:13;8.50;56.90
2749;DHT22;1382;52.142;11.618;2023-02-01T01:38:40;8.50;56.30
2749;DHT22;1382;52.142;11.618;2023-02-01T01:41:08;8.50;56.20
2749;DHT22;1382;52.142;11.618;2023-02-01T01:43:54;8.50;56.40
2749;DHT22;1382;52.142;11.618;2023-02-01T01:46:23;8.60;56.80
2749;DHT22;1382;52.142;11.618;2023-02-01T01:48:57;8.50;56.60
2749;DHT22;1382;52.142;11.618;2023-02-01T01:51:28;8.50;56.50
2749;DHT22;1382;52.142;11.618;2023-02-01T01:54:00;8.50;56.60
2749;DHT22;1382;52.142;11.618;2023-02-01T01:56:28;8.50;56.40
2749;DHT22;1382;52.142;11.618;2023-02-01T01:58:58;8.50;56.50
2749;DHT22;1382;52.142;11.618;2023-02-01T02:01:25;8.60;56.60
2749;DHT22;1382;52.142;11.618;2023-02-01T02:03:52;8.60;56.40
2749;DHT22;1382;52.142;11.618;2023-02-01T02:06:27;8.60;56.30
2749;DHT22;1382;52.142;11.618;2023-02-01T02:08:54;8.50;56.30
2749;DHT22;1382;52.142;11.618;2023-02-01T02:11:21;8.50;56.80
2749;DHT22;1382;52.142;11.618;2023-02-01T02:13:50;8.50;56.80
2749;DHT22;1382;52.142;11.618;2023-02-01T02:16:28;8.60;56.60
2749;DHT22;1382;52.142;11.618;2023-02-01T02:19:12;8.60;56.70
2749;DHT22;1382;52.142;11.618;2023-02-01T02:21:56;8.60;56.60
2749;DHT22;1382;52.142;11.618;2023-02-01T02:24:48;8.60;56.90
2749;DHT22;1382;52.142;11.618;2023-02-01T02:27:32;8.60;56.60
2749;DHT22;1382;52.142;11.618;2023-02-01T02:33:36;8.60;57.10
2749;DHT22;1382;52.142;11.618;2023-02-01T02:36:08;8.60;56.90
2749;DHT22;1382;52.142;11.618;2023-02-01T02:38:41;8.60;57.00
2749;DHT22;1382;52.142;11.618;2023-02-01T02:41:15;8.70;57.10
2749;DHT22;1382;52.142;11.618;2023-02-01T02:43:47;8.60;57.00
2749;DHT22;1382;52.142;11.618;2023-02-01T02:46:22;8.50;57.00
2749;DHT22;1382;52.142;11.618;2023-02-01T02:48:55;8.50;56.90
2749;DHT22;1382;52.142;11.618;2023-02-01T02:51:30;8.50;56.80
2749;DHT22;1382;52.142;11.618;2023-02-01T02:54:02;8.50;57.10
2749;DHT22;1382;52.142;11.618;2023-02-01T02:56:30;8.50;57.10
2749;DHT22;1382;52.142;11.618;2023-02-01T02:58:58;8.50;57.10
2749;DHT22;1382;52.142;11.618;2023-02-01T03:01:25;8.60;56.90
2749;DHT22;1382;52.142;11.618;2023-02-01T03:03:54;8.60;57.00
2749;DHT22;1382;52.142;11.618;2023-02-01T03:06:22;8.60;57.20
2749;DHT22;1382;52.142;11.618;2023-02-01T03:08:49;8.60;57.30
2749;DHT22;1382;52.142;11.618;2023-02-01T03:11:16;8.60;56.90
2749;DHT22;1382;52.142;11.618;2023-02-01T03:13:48;8.60;57.00
2749;DHT22;1382;52.142;11.618;2023-02-01T03:16:18;8.60;57.00
2749;DHT22;1382;52.142;11.618;2023-02-01T03:18:51;8.70;57.60
2749;DHT22;1382;52.142;11.618;2023-02-01T03:21:25;8.60;57.20
2749;DHT22;1382;52.142;11.618;2023-02-01T03:23:53;8.70;56.80
2749;DHT22;1382;52.142;11.618;2023-02-01T03:26:22;8.60;56.80
2749;DHT22;1382;52.142;11.618;2023-02-01T03:28:54;8.60;56.70
2749;DHT22;1382;52.142;11.618;2023-02-01T03:31:22;8.60;56.80
2749;DHT22;1382;52.142;11.618;2023-02-01T03:33:50;8.60;57.10
2749;DHT22;1382;52.142;11.618;2023-02-01T03:36:23;8.50;56.90
2749;DHT22;1382;52.142;11.618;2023-02-01T03:38:55;8.50;57.00
2749;DHT22;1382;52.142;11.618;2023-02-01T03:41:27;8.50;56.80
2749;DHT22;1382;52.142;11.618;2023-02-01T03:44:04;8.50;57.00
2749;DHT22;1382;52.142;11.618;2023-02-01T03:46:37;8.50;57.00
2749;DHT22;1382;52.142;11.618;2023-02-01T03:49:06;8.60;57.20
2749;DHT22;1382;52.142;11.618;2023-02-01T03:51:36;8.50;57.20
2749;DHT22;1382;52.142;11.618;2023-02-01T03:54:05;8.40;57.10
2749;DHT22;1382;52.142;11.618;2023-02-01T03:56:36;8.50;57.20
2749;DHT22;1382;52.142;11.618;2023-02-01T03:59:04;8.60;57.10
2749;DHT22;1382;52.142;11.618;2023-02-01T04:01:31;8.40;56.90
2749;DHT22;1382;52.142;11.618;2023-02-01T04:03:58;8.40;57.20
2749;DHT22;1382;52.142;11.618;2023-02-01T04:06:25;8.40;57.20
2749;DHT22;1382;52.142;11.618;2023-02-01T04:08:53;8.50;57.00
2749;DHT22;1382;52.142;11.618;2023-02-01T04:11:20;8.40;57.00
2749;DHT22;1382;52.142;11.618;2023-02-01T04:13:47;8.40;56.90
2749;DHT22;1382;52.142;11.618;2023-02-01T04:16:14;8.40;56.90
2749;DHT22;1382;52.142;11.618;2023-02-01T04:18:40;8.40;56.90
2749;DHT22;1382;52.142;11.618;2023-02-01T04:21:07;8.30;56.80
2749;DHT22;1382;52.142;11.618;2023-02-01T04:23:34;8.30;57.00
2749;DHT22;1382;52.142;11.618;2023-02-01T04:26:03;8.30;57.10
2749;DHT22;1382;52.142;11.618;2023-02-01T04:28:31;8.30;57.00
2749;DHT22;1382;52.142;11.618;2023-02-01T04:30:57;8.30;57.00
2749;DHT22;1382;52.142;11.618;2023-02-01T04:33:24;8.30;57.20
2749;DHT22;1382;52.142;11.618;2023-02-01T04:35:51;8.50;57.70
2749;DHT22;1382;52.142;11.618;2023-02-01T04:38:18;8.30;57.20
2749;DHT22;1382;52.142;11.618;2023-02-01T04:40:47;8.30;57.20
2749;DHT22;1382;52.142;11.618;2023-02-01T04:43:15;8.40;57.50
2749;DHT22;1382;52.142;11.618;2023-02-01T04:45:46;8.30;57.50
2749;DHT22;1382;52.142;11.618;2023-02-01T04:48:13;8.30;57.40
2749;DHT22;1382;52.142;11.618;2023-02-01T04:50:40;8.30;57.50
2749;DHT22;1382;52.142;11.618;2023-02-01T04:53:06;8.30;57.60
2749;DHT22;1382;52.142;11.618;2023-02-01T04:55:33;8.30;57.50
2749;DHT22;1382;52.142;11.618;2023-02-01T04:58:00;8.30;57.60
2749;DHT22;1382;52.142;11.618;2023-02-01T05:00:28;8.30;57.60
2749;DHT22;1382;52.142;11.618;2023-02-01T05:02:54;8.30;57.50
2749;DHT22;1382;52.142;11.618;2023-02-01T05:05:21;8.30;57.60
2749;DHT22;1382;52.142;11.618;2023-02-01T05:07:48;8.30;58.00
2749;DHT22;1382;52.142;11.618;2023-02-01T05:10:15;8.30;57.90
2749;DHT22;1382;52.142;11.618;2023-02-01T05:12:43;8.30;57.90
2749;DHT22;1382;52.142;11.618;2023-02-01T05:15:10;8.30;58.20
2749;DHT22;1382;52.142;11.618;2023-02-01T05:17:38;8.30;58.30
2749;DHT22;1382;52.142;11.618;2023-02-01T05:20:05;8.30;58.40
2749;DHT22;1382;52.142;11.618;2023-02-01T05:22:32;8.30;58.50
2749;DHT22;1382;52.142;11.618;2023-02-01T05:24:59;8.40;58.70
2749;DHT22;1382;52.142;11.618;2023-02-01T05:27:25;8.40;58.70
2749;DHT22;1382;52.142;11.618;2023-02-01T05:29:52;8.40;58.60
2749;DHT22;1382;52.142;11.618;2023-02-01T05:32:19;8.40;58.60
2749;DHT22;1382;52.142;11.618;2023-02-01T05:34:49;8.40;58.60
2749;DHT22;1382;52.142;11.618;2023-02-01T05:37:16;8.40;58.60
2749;DHT22;1382;52.142;11.618;2023-02-01T05:39:43;8.40;58.70
2749;DHT22;1382;52.142;11.618;2023-02-01T05:42:10;8.40;58.90
2749;DHT22;1382;52.142;11.618;2023-02-01T05:44:36;8.40;59.00
2749;DHT22;1382;52.142;11.618;2023-02-01T05:47:03;8.40;58.90
2749;DHT22;1382;52.142;11.618;2023-02-01T05:49:30;8.40;58.80
2749;DHT22;1382;52.142;11.618;2023-02-01T05:51:58;8.40;58.70
2749;DHT22;1382;52.142;11.618;2023-02-01T05:54:26;8.40;58.70
2749;DHT22;1382;52.142;11.618;2023-02-01T05:56:53;8.50;58.80
2749;DHT22;1382;52.142;11.618;2023-02-01T05:59:19;8.40;58.80
2749;DHT22;1382;52.142;11.618;2023-02-01T06:01:46;8.40;58.80
2749;DHT22;1382;52.142;11.618;2023-02-01T06:04:13;8.40;58.80
2749;DHT22;1382;52.142;11.618;2023-02-01T06:06:39;8.40;58.90
2749;DHT22;1382;52.142;11.618;2023-02-01T06:09:08;8.40;58.90
2749;DHT22;1382;52.142;11.618;2023-02-01T06:11:34;8.40;58.80
2749;DHT22;1382;52.142;11.618;2023-02-01T06:14:01;8.40;58.70
2749;DHT22;1382;52.142;11.618;2023-02-01T06:16:28;8.40;58.50
2749;DHT22;1382;52.142;11.618;2023-02-01T06:18:54;8.40;58.70
2749;DHT22;1382;52.142;11.618;2023-02-01T06:21:21;8.40;58.90
2749;DHT22;1382;52.142;11.618;2023-02-01T06:23:48;8.30;59.00
2749;DHT22;1382;52.142;11.618;2023-02-01T06:26:16;8.30;59.00
2749;DHT22;1382;52.142;11.618;2023-02-01T06:28:43;8.40;59.00
2749;DHT22;1382;52.142;11.618;2023-02-01T06:31:10;8.30;59.10
2749;DHT22;1382;52.142;11.618;2023-02-01T06:33:37;8.30;59.20
2749;DHT22;1382;52.142;11.618;2023-02-01T06:36:05;8.30;59.30
2749;DHT22;1382;52.142;11.618;2023-02-01T06:38:33;8.30;59.50
2749;DHT22;1382;52.142;11.618;2023-02-01T06:41:00;8.30;59.60
2749;DHT22;1382;52.142;11.618;2023-02-01T06:43:28;8.30;59.70
2749;DHT22;1382;52.142;11.618;2023-02-01T06:45:59;8.30;59.90
2749;DHT22;1382;52.142;11.618;2023-02-01T06:48:26;8.40;60.10
2749;DHT22;1382;52.142;11.618;2023-02-01T06:50:53;8.30;60.30
2749;DHT22;1382;52.142;11.618;2023-02-01T06:53:20;8.40;60.50
2749;DHT22;1382;52.142;11.618;2023-02-01T06:55:53;8.30;60.50
2749;DHT22;1382;52.142;11.618;2023-02-01T06:58:20;8.30;60.50
2749;DHT22;1382;52.142;11.618;2023-02-01T07:00:48;8.30;60.40
2749;DHT22;1382;52.142;11.618;2023-02-01T07:03:15;8.30;60.40
2749;DHT22;1382;52.142;11.618;2023-02-01T07:05:42;8.30;60.40
2749;DHT22;1382;52.142;11.618;2023-02-01T07:08:09;8.30;60.40
2749;DHT22;1382;52.142;11.618;2023-02-01T07:10:36;8.30;60.40
2749;DHT22;1382;52.142;11.618;2023-02-01T07:13:03;8.30;60.50
2749;DHT22;1382;52.142;11.618;2023-02-01T07:15:30;8.30;60.60
2749;DHT22;1382;52.142;11.618;2023-02-01T07:17:58;8.30;60.70
2749;DHT22;1382;52.142;11.618;2023-02-01T07:20:24;8.30;60.70
2749;DHT22;1382;52.142;11.618;2023-02-01T07:22:55;8.30;60.70
2749;DHT22;1382;52.142;11.618;2023-02-01T07:25:22;8.30;60.70
2749;DHT22;1382;52.142;11.618;2023-02-01T07:27:48;8.30;60.70
2749;DHT22;1382;52.142;11.618;2023-02-01T07:30:15;8.40;60.80
2749;DHT22;1382;52.142;11.618;2023-02-01T07:32:42;8.30;60.70
2749;DHT22;1382;52.142;11.618;2023-02-01T07:35:10;8.30;60.70
2749;DHT22;1382;52.142;11.618;2023-02-01T07:37:37;8.30;61.00
2749;DHT22;1382;52.142;11.618;2023-02-01T07:40:05;8.30;61.40
2749;DHT22;1382;52.142;11.618;2023-02-01T07:42:31;8.30;61.60
2749;DHT22;1382;52.142;11.618;2023-02-01T07:44:58;8.20;61.50
2749;DHT22;1382;52.142;11.618;2023-02-01T07:47:40;8.20;61.70
2749;DHT22;1382;52.142;11.618;2023-02-01T07:50:08;8.20;62.00
2749;DHT22;1382;52.142;11.618;2023-02-01T07:52:36;8.10;62.30
2749;DHT22;1382;52.142;11.618;2023-02-01T07:55:03;8.10;62.40
2749;DHT22;1382;52.142;11.618;2023-02-01T07:57:30;8.10;62.40
2749;DHT22;1382;52.142;11.618;2023-02-01T07:59:56;8.10;62.30
2749;DHT22;1382;52.142;11.618;2023-02-01T08:02:23;8.10;62.40
2749;DHT22;1382;52.142;11.618;2023-02-01T08:04:50;8.10;62.60
2749;DHT22;1382;52.142;11.618;2023-02-01T08:07:17;8.10;62.50
2749;DHT22;1382;52.142;11.618;2023-02-01T08:09:45;8.10;62.80
2749;DHT22;1382;52.142;11.618;2023-02-01T08:12:11;8.10;62.90
2749;DHT22;1382;52.142;11.618;2023-02-01T08:14:38;8.10;62.90
2749;DHT22;1382;52.142;11.618;2023-02-01T08:17:05;8.20;63.20
2749;DHT22;1382;52.142;11.618;2023-02-01T08:19:31;8.20;63.20
2749;DHT22;1382;52.142;11.618;2023-02-01T08:21:58;8.20;63.30
2749;DHT22;1382;52.142;11.618;2023-02-01T08:24:25;8.10;63.30
2749;DHT22;1382;52.142;11.618;2023-02-01T08:26:53;8.10;63.40
2749;DHT22;1382;52.142;11.618;2023-02-01T08:29:19;8.20;63.60
2749;DHT22;1382;52.142;11.618;2023-02-01T08:31:46;8.20;63.70
2749;DHT22;1382;52.142;11.618;2023-02-01T08:34:13;8.10;63.60
2749;DHT22;1382;52.142;11.618;2023-02-01T08:36:40;8.20;63.70
2749;DHT22;1382;52.142;11.618;2023-02-01T08:39:06;8.20;63.60
2749;DHT22;1382;52.142;11.618;2023-02-01T08:41:33;8.20;63.80
2749;DHT22;1382;52.142;11.618;2023-02-01T08:44:01;8.20;63.90
2749;DHT22;1382;52.142;11.618;2023-02-01T08:46:28;8.10;63.80
2749;DHT22;1382;52.142;11.618;2023-02-01T08:48:55;8.10;64.30
2749;DHT22;1382;52.142;11.618;2023-02-01T08:51:23;8.10;64.20
2749;DHT22;1382;52.142;11.618;2023-02-01T08:53:50;8.20;64.40
2749;DHT22;1382;52.142;11.618;2023-02-01T08:56:18;8.20;64.40
2749;DHT22;1382;52.142;11.618;2023-02-01T08:58:45;8.20;64.40
2749;DHT22;1382;52.142;11.618;2023-02-01T09:01:15;8.20;64.40
2749;DHT22;1382;52.142;11.618;2023-02-01T09:03:42;8.30;64.40
2749;DHT22;1382;52.142;11.618;2023-02-01T09:06:10;8.30;63.90
2749;DHT22;1382;52.142;11.618;2023-02-01T09:08:38;8.20;63.70
2749;DHT22;1382;52.142;11.618;2023-02-01T09:11:08;8.20;63.90
2749;DHT22;1382;52.142;11.618;2023-02-01T09:13:34;8.10;64.10
2749;DHT22;1382;52.142;11.618;2023-02-01T09:16:01;8.20;64.20
2749;DHT22;1382;52.142;11.618;2023-02-01T09:18:29;8.10;64.10
2749;DHT22;1382;52.142;11.618;2023-02-01T09:20:56;8.20;64.40
2749;DHT22;1382;52.142;11.618;2023-02-01T09:23:23;8.20;64.40
2749;DHT22;1382;52.142;11.618;2023-02-01T09:25:50;8.20;64.30
2749;DHT22;1382;52.142;11.618;2023-02-01T09:28:16;8.40;64.30
2749;DHT22;1382;52.142;11.618;2023-02-01T09:30:43;8.30;64.20
2749;DHT22;1382;52.142;11.618;2023-02-01T09:33:10;8.40;64.10
2749;DHT22;1382;52.142;11.618;2023-02-01T09:35:38;8.30;63.90
2749;DHT22;1382;52.142;11.618;2023-02-01T09:38:05;8.50;64.10
2749;DHT22;1382;52.142;11.618;2023-02-01T09:40:33;8.40;64.00
2749;DHT22;1382;52.142;11.618;2023-02-01T09:43:11;8.40;63.80
2749;DHT22;1382;52.142;11.618;2023-02-01T09:45:44;8.40;63.50
2749;DHT22;1382;52.142;11.618;2023-02-01T09:48:15;8.40;63.30
2749;DHT22;1382;52.142;11.618;2023-02-01T09:50:48;8.40;63.50
2749;DHT22;1382;52.142;11.618;2023-02-01T09:53:22;8.40;63.50
2749;DHT22;1382;52.142;11.618;2023-02-01T09:55:53;8.50;63.30
2749;DHT22;1382;52.142;11.618;2023-02-01T09:58:25;8.50;62.90
2749;DHT22;1382;52.142;11.618;2023-02-01T10:00:56;8.50;62.70
2749;DHT22;1382;52.142;11.618;2023-02-01T10:03:24;8.50;62.50
2749;DHT22;1382;52.142;11.618;2023-02-01T10:06:19;8.60;62.70
2749;DHT22;1382;52.142;11.618;2023-02-01T10:09:08;8.70;62.30
2749;DHT22;1382;52.142;11.618;2023-02-01T10:11:47;8.70;62.50
2749;DHT22;1382;52.142;11.618;2023-02-01T10:14:39;8.70;62.20
2749;DHT22;1382;52.142;11.618;2023-02-01T10:17:20;8.70;62.10
2749;DHT22;1382;52.142;11.618;2023-02-01T10:20:01;8.70;62.40
2749;DHT22;1382;52.142;11.618;2023-02-01T10:22:40;8.70;62.60
2749;DHT22;1382;52.142;11.618;2023-02-01T10:25:31;8.70;63.00
2749;DHT22;1382;52.142;11.618;2023-02-01T10:28:00;8.70;63.10
2749;DHT22;1382;52.142;11.618;2023-02-01T10:30:31;8.80;63.20
2749;DHT22;1382;52.142;11.618;2023-02-01T10:33:12;8.80;63.10
2749;DHT22;1382;52.142;11.618;2023-02-01T10:35:40;8.80;63.10
2749;DHT22;1382;52.142;11.618;2023-02-01T10:38:17;8.70;63.10
2749;DHT22;1382;52.142;11.618;2023-02-01T10:40:46;8.80;62.70
2749;DHT22;1382;52.142;11.618;2023-02-01T10:43:13;8.70;62.70
2749;DHT22;1382;52.142;11.618;2023-02-01T10:45:40;8.70;63.00
2749;DHT22;1382;52.142;11.618;2023-02-01T10:48:08;8.70;63.00
2749;DHT22;1382;52.142;11.618;2023-02-01T10:50:38;8.70;63.00
2749;DHT22;1382;52.142;11.618;2023-02-01T10:53:10;8.80;63.00
2749;DHT22;1382;52.142;11.618;2023-02-01T10:55:39;8.80;63.00
2749;DHT22;1382;52.142;11.618;2023-02-01T10:58:17;8.90;62.90
2749;DHT22;1382;52.142;11.618;2023-02-01T11:00:47;8.90;62.90
2749;DHT22;1382;52.142;11.618;2023-02-01T11:03:33;9.00;63.00
2749;DHT22;1382;52.142;11.618;2023-02-01T11:06:01;9.00;62.80
2749;DHT22;1382;52.142;11.618;2023-02-01T11:08:30;9.00;63.00
2749;DHT22;1382;52.142;11.618;2023-02-01T11:10:59;9.10;63.10
2749;DHT22;1382;52.142;11.618;2023-02-01T11:13:29;9.10;63.10
2749;DHT22;1382;52.142;11.618;2023-02-01T11:15:57;9.10;63.30
2749;DHT22;1382;52.142;11.618;2023-02-01T11:18:27;9.10;63.40
2749;DHT22;1382;52.142;11.618;2023-02-01T11:20:54;9.10;64.40
2749;DHT22;1382;52.142;11.618;2023-02-01T11:23:23;9.00;63.70
2749;DHT22;1382;52.142;11.618;2023-02-01T11:25:53;9.10;63.40
2749;DHT22;1382;52.142;11.618;2023-02-01T11:28:23;9.10;62.90
2749;DHT22;1382;52.142;11.618;2023-02-01T11:30:54;9.00;63.20
2749;DHT22;1382;52.142;11.618;2023-02-01T11:33:25;9.00;63.40
2749;DHT22;1382;52.142;11.618;2023-02-01T11:35:53;8.90;63.50
2749;DHT22;1382;52.142;11.618;2023-02-01T11:38:22;8.90;63.90
2749;DHT22;1382;52.142;11.618;2023-02-01T11:40:52;8.90;63.90
2749;DHT22;1382;52.142;11.618;2023-02-01T11:43:23;8.90;63.90
2749;DHT22;1382;52.142;11.618;2023-02-01T11:45:55;9.00;64.00
2749;DHT22;1382;52.142;11.618;2023-02-01T11:48:24;9.00;64.00
2749;DHT22;1382;52.142;11.618;2023-02-01T11:51:04;9.00;64.00
2749;DHT22;1382;52.142;11.618;2023-02-01T11:53:40;9.00;63.90
2749;DHT22;1382;52.142;11.618;2023-02-01T11:56:19;9.00;64.00
2749;DHT22;1382;52.142;11.618;2023-02-01T11:59:09;9.00;63.70
2749;DHT22;1382;52.142;11.618;2023-02-01T12:01:56;9.10;63.60
2749;DHT22;1382;52.142;11.618;2023-02-01T12:04:45;9.00;63.50
2749;DHT22;1382;52.142;11.618;2023-02-01T12:07:20;9.10;62.90
2749;DHT22;1382;52.142;11.618;2023-02-01T12:10:01;9.00;62.90
2749;DHT22;1382;52.142;11.618;2023-02-01T12:12:39;9.10;62.90
2749;DHT22;1382;52.142;11.618;2023-02-01T12:15:22;9.00;62.50
2749;DHT22;1382;52.142;11.618;2023-02-01T12:18:06;9.10;62.20
2749;DHT22;1382;52.142;11.618;2023-02-01T12:20:53;9.10;62.00
2749;DHT22;1382;52.142;11.618;2023-02-01T12:23:35;9.10;61.30
2749;DHT22;1382;52.142;11.618;2023-02-01T12:26:22;9.30;61.50
2749;DHT22;1382;52.142;11.618;2023-02-01T12:29:08;9.30;62.00
2749;DHT22;1382;52.142;11.618;2023-02-01T12:32:05;9.30;61.60
2749;DHT22;1382;52.142;11.618;2023-02-01T12:34:50;9.40;60.80
2749;DHT22;1382;52.142;11.618;2023-02-01T12:37:29;9.30;60.50
2749;DHT22;1382;52.142;11.618;2023-02-01T12:40:15;9.40;61.40
2749;DHT22;1382;52.142;11.618;2023-02-01T12:42:51;9.40;60.40
2749;DHT22;1382;52.142;11.618;2023-02-01T12:45:30;9.50;60.40
2749;DHT22;1382;52.142;11.618;2023-02-01T12:48:00;9.50;60.60
2749;DHT22;1382;52.142;11.618;2023-02-01T12:50:32;9.60;60.70
2749;DHT22;1382;52.142;11.618;2023-02-01T12:53:08;9.70;59.80
2749;DHT22;1382;52.142;11.618;2023-02-01T12:55:36;9.80;59.50
2749;DHT22;1382;52.142;11.618;2023-02-01T12:58:10;9.90;59.80
2749;DHT22;1382;52.142;11.618;2023-02-01T13:00:43;10.00;57.90
2749;DHT22;1382;52.142;11.618;2023-02-01T13:03:19;10.10;57.80
2749;DHT22;1382;52.142;11.618;2023-02-01T13:05:53;10.10;56.80
2749;DHT22;1382;52.142;11.618;2023-02-01T13:08:24;10.20;56.70
2749;DHT22;1382;52.142;11.618;2023-02-01T13:10:57;10.20;55.90
2749;DHT22;1382;52.142;11.618;2023-02-01T13:13:30;10.20;56.50
2749;DHT22;1382;52.142;11.618;2023-02-01T13:16:05;10.20;56.50
2749;DHT22;1382;52.142;11.618;2023-02-01T13:18:37;10.20;56.00
2749;DHT22;1382;52.142;11.618;2023-02-01T13:21:08;10.20;55.50
2749;DHT22;1382;52.142;11.618;2023-02-01T13:23:38;10.20;55.80
2749;DHT22;1382;52.142;11.618;2023-02-01T13:26:06;10.30;55.70
2749;DHT22;1382;52.142;11.618;2023-02-01T13:28:39;10.30;56.40
2749;DHT22;1382;52.142;11.618;2023-02-01T13:31:42;10.30;55.90
2749;DHT22;1382;52.142;11.618;2023-02-01T13:34:40;10.40;55.40
2749;DHT22;1382;52.142;11.618;2023-02-01T13:37:21;10.30;56.20
2749;DHT22;1382;52.142;11.618;2023-02-01T13:40:10;10.20;56.10
2749;DHT22;1382;52.142;11.618;2023-02-01T13:42:47;10.20;56.20
2749;DHT22;1382;52.142;11.618;2023-02-01T13:45:16;10.10;56.90
2749;DHT22;1382;52.142;11.618;2023-02-01T13:47:58;10.20;57.70
2749;DHT22;1382;52.142;11.618;2023-02-01T13:50:27;10.00;57.80
2749;DHT22;1382;52.142;11.618;2023-02-01T13:52:57;10.10;58.30
2749;DHT22;1382;52.142;11.618;2023-02-01T13:55:29;10.20;57.00
2749;DHT22;1382;52.142;11.618;2023-02-01T13:58:15;10.20;57.00
2749;DHT22;1382;52.142;11.618;2023-02-01T14:00:43;10.20;56.90
2749;DHT22;1382;52.142;11.618;2023-02-01T14:03:17;10.10;57.40
2749;DHT22;1382;52.142;11.618;2023-02-01T14:06:02;10.10;57.10
2749;DHT22;1382;52.142;11.618;2023-02-01T14:08:41;10.10;56.60
2749;DHT22;1382;52.142;11.618;2023-02-01T14:11:35;10.00;57.10
2749;DHT22;1382;52.142;11.618;2023-02-01T14:17:39;10.00;57.40
2749;DHT22;1382;52.142;11.618;2023-02-01T14:23:15;9.90;58.80
2749;DHT22;1382;52.142;11.618;2023-02-01T14:25:43;9.90;59.00
2749;DHT22;1382;52.142;11.618;2023-02-01T14:28:12;9.90;58.60
2749;DHT22;1382;52.142;11.618;2023-02-01T14:30:46;9.90;58.90
2749;DHT22;1382;52.142;11.618;2023-02-01T14:33:20;9.80;58.90
2749;DHT22;1382;52.142;11.618;2023-02-01T14:36:02;9.80;59.00
2749;DHT22;1382;52.142;11.618;2023-02-01T14:38:31;9.80;59.40
2749;DHT22;1382;52.142;11.618;2023-02-01T14:41:13;9.60;59.80
2749;DHT22;1382;52.142;11.618;2023-02-01T14:44:13;9.60;59.80
2749;DHT22;1382;52.142;11.618;2023-02-01T14:47:03;9.50;60.20
2749;DHT22;1382;52.142;11.618;2023-02-01T14:49:31;9.40;60.00
2749;DHT22;1382;52.142;11.618;2023-02-01T14:51:59;9.20;60.50
2749;DHT22;1382;52.142;11.618;2023-02-01T14:54:27;9.30;61.10
2749;DHT22;1382;52.142;11.618;2023-02-01T14:56:55;9.10;61.00
2749;DHT22;1382;52.142;11.618;2023-02-01T14:59:24;9.10;61.00
2749;DHT22;1382;52.142;11.618;2023-02-01T15:01:55;9.00;60.70
2749;DHT22;1382;52.142;11.618;2023-02-01T15:04:25;9.00;60.90
2749;DHT22;1382;52.142;11.618;2023-02-01T15:06:54;8.90;60.70
2749;DHT22;1382;52.142;11.618;2023-02-01T15:09:27;9.10;61.20
2749;DHT22;1382;52.142;11.618;2023-02-01T15:12:00;8.80;60.80
2749;DHT22;1382;52.142;11.618;2023-02-01T15:14:30;8.90;60.90
2749;DHT22;1382;52.142;11.618;2023-02-01T15:16:57;8.90;60.80
2749;DHT22;1382;52.142;11.618;2023-02-01T15:19:25;8.90;60.70
2749;DHT22;1382;52.142;11.618;2023-02-01T15:21:54;8.80;60.50
2749;DHT22;1382;52.142;11.618;2023-02-01T15:24:24;8.80;60.60
2749;DHT22;1382;52.142;11.618;2023-02-01T15:26:54;8.80;60.50
2749;DHT22;1382;52.142;11.618;2023-02-01T15:29:23;8.70;60.50
2749;DHT22;1382;52.142;11.618;2023-02-01T15:31:51;8.70;60.90
2749;DHT22;1382;52.142;11.618;2023-02-01T15:34:19;8.70;60.50
2749;DHT22;1382;52.142;11.618;2023-02-01T15:36:47;8.90;60.90
2749;DHT22;1382;52.142;11.618;2023-02-01T15:39:28;8.70;60.50
2749;DHT22;1382;52.142;11.618;2023-02-01T15:41:58;8.70;60.20
2749;DHT22;1382;52.142;11.618;2023-02-01T15:44:34;8.60;60.50
2749;DHT22;1382;52.142;11.618;2023-02-01T15:47:13;8.60;60.70
2749;DHT22;1382;52.142;11.618;2023-02-01T15:49:44;8.60;60.70
2749;DHT22;1382;52.142;11.618;2023-02-01T15:52:21;8.60;61.10
2749;DHT22;1382;52.142;11.618;2023-02-01T15:54:51;8.70;60.70
2749;DHT22;1382;52.142;11.618;2023-02-01T15:57:23;8.70;60.10
2749;DHT22;1382;52.142;11.618;2023-02-01T15:59:52;8.60;59.70
2749;DHT22;1382;52.142;11.618;2023-02-01T16:02:27;8.60;59.20
2749;DHT22;1382;52.142;11.618;2023-02-01T16:04:54;8.50;59.10
2749;DHT22;1382;52.142;11.618;2023-02-01T16:07:25;8.40;59.30
2749;DHT22;1382;52.142;11.618;2023-02-01T16:09:54;8.30;59.30
2749;DHT22;1382;52.142;11.618;2023-02-01T16:12:29;8.30;59.60
2749;DHT22;1382;52.142;11.618;2023-02-01T16:14:56;8.30;59.20
2749;DHT22;1382;52.142;11.618;2023-02-01T16:17:23;8.20;59.40
2749;DHT22;1382;52.142;11.618;2023-02-01T16:19:51;8.20;59.60
2749;DHT22;1382;52.142;11.618;2023-02-01T16:22:17;8.20;59.50
2749;DHT22;1382;52.142;11.618;2023-02-01T16:24:44;8.20;59.30
2749;DHT22;1382;52.142;11.618;2023-02-01T16:27:11;8.10;59.40
2749;DHT22;1382;52.142;11.618;2023-02-01T16:29:39;8.10;59.40
2749;DHT22;1382;52.142;11.618;2023-02-01T16:32:15;8.10;59.40